sensor_id;sensor_type;location;lat;lon;timestamp;temperature;humidity
47022;DHT22;32779;52.264;6.154;2023-04-05T00:01:27;2.70;99.90
47022;DHT22;32779;52.264;6.154;2023-04-05T00:03:54;2.60;99.90
47022;DHT22;32779;52.264;6.154;2023-04-05T00:06:22;2.60;99.90
47022;DHT22;32779;52.264;6.154;2023-04-05T00:08:58;2.50;99.90
47022;DHT22;32779;52.264;6.154;2023-04-05T00:11:24;2.40;99.90
47022;DHT22;32779;52.264;6.154;2023-04-05T00:13:50;2.40;99.90
47022;DHT22;32779;52.264;6.154;2023-04-05T00:16:16;2.40;99.90
47022;DHT22;32779;52.264;6.154;2023-04-05T00:18:42;2.30;99.90
47022;DHT22;32779;52.264;6.154;2023-04-05T00:21:14;2.30;99.90
47022;DHT22;32779;52.264;6.154;2023-04-05T00:23:40;2.30;99.90
47022;DHT22;32779;52.264;6.154;2023-04-05T00:26:06;2.30;99.90
47022;DHT22;32779;52.264;6.154;2023-04-05T00:28:33;2.30;99.90
47022;DHT22;32779;52.264;6.154;2023-04-05T00:30:58;2.30;99.90
47022;DHT22;32779;52.264;6.154;2023-04-05T00:33:24;2.20;99.90
47022;DHT22;32779;52.264;6.154;2023-04-05T00:35:50;2.30;99.90
47022;DHT22;32779;52.264;6.154;2023-04-05T00:38:15;2.30;99.90
47022;DHT22;32779;52.264;6.154;2023-04-05T00:40:41;2.30;99.90
47022;DHT22;32779;52.264;6.154;2023-04-05T00:43:07;2.20;99.90
47022;DHT22;32779;52.264;6.154;2023-04-05T00:45:32;2.20;99.90
47022;DHT22;32779;52.264;6.154;2023-04-05T00:47:58;2.10;99.90
47022;DHT22;32779;52.264;6.154;2023-04-05T00:50:25;2.00;99.90
47022;DHT22;32779;52.264;6.154;2023-04-05T00:52:54;2.00;99.90
47022;DHT22;32779;52.264;6.154;2023-04-05T00:55:20;1.90;99.90
47022;DHT22;32779;52.264;6.154;2023-04-05T00:57:46;1.90;99.90
47022;DHT22;32779;52.264;6.154;2023-04-05T01:00:14;1.90;99.90
47022;DHT22;32779;52.264;6.154;2023-04-05T01:02:45;1.80;99.90
47022;DHT22;32779;52.264;6.154;2023-04-05T01:05:39;1.80;99.90
47022;DHT22;32779;52.264;6.154;2023-04-05T01:10:53;1.70;99.90
47022;DHT22;32779;52.264;6.154;2023-04-05T01:13:19;1.70;99.90
47022;DHT22;32779;52.264;6.154;2023-04-05T01:15:45;1.80;99.90
47022;DHT22;32779;52.264;6.154;2023-04-05T01:18:12;1.70;99.90
47022;DHT22;32779;52.264;6.154;2023-04-05T01:20:44;1.70;99.90
47022;DHT22;32779;52.264;6.154;2023-04-05T01:31:25;1.60;99.90
47022;DHT22;32779;52.264;6.154;2023-04-05T01:34:01;1.50;99.90
47022;DHT22;32779;52.264;6.154;2023-04-05T01:36:39;1.50;99.90
47022;DHT22;32779;52.264;6.154;2023-04-05T01:39:07;1.40;99.90
47022;DHT22;32779;52.264;6.154;2023-04-05T01:41:37;1.40;99.90
47022;DHT22;32779;52.264;6.154;2023-04-05T01:44:03;1.40;99.90
47022;DHT22;32779;52.264;6.154;2023-04-05T01:46:29;1.30;99.90
47022;DHT22;32779;52.264;6.154;2023-04-05T01:48:55;1.30;99.90
47022;DHT22;32779;52.264;6.154;2023-04-05T01:51:20;1.30;99.90
47022;DHT22;32779;52.264;6.154;2023-04-05T01:53:46;1.20;99.90
47022;DHT22;32779;52.264;6.154;2023-04-05T01:56:12;1.20;99.90
47022;DHT22;32779;52.264;6.154;2023-04-05T01:58:37;1.20;99.90
47022;DHT22;32779;52.264;6.154;2023-04-05T02:01:03;1.20;99.90
47022;DHT22;32779;52.264;6.154;2023-04-05T02:03:28;1.20;99.90
47022;DHT22;32779;52.264;6.154;2023-04-05T02:05:54;1.10;99.90
47022;DHT22;32779;52.264;6.154;2023-04-05T02:08:20;1.10;99.90
47022;DHT22;32779;52.264;6.154;2023-04-05T02:10:45;1.10;99.90
47022;DHT22;32779;52.264;6.154;2023-04-05T02:13:12;1.00;99.90
47022;DHT22;32779;52.264;6.154;2023-04-05T02:15:38;1.00;99.90
47022;DHT22;32779;52.264;6.154;2023-04-05T02:18:03;1.00;99.90
47022;DHT22;32779;52.264;6.154;2023-04-05T02:20:29;1.00;99.90
47022;DHT22;32779;52.264;6.154;2023-04-05T02:22:55;1.00;99.90
47022;DHT22;32779;52.264;6.154;2023-04-05T02:25:21;1.00;99.90
47022;DHT22;32779;52.264;6.154;2023-04-05T02:27:47;0.90;99.90
47022;DHT22;32779;52.264;6.154;2023-04-05T02:30:13;0.90;99.90
47022;DHT22;32779;52.264;6.154;2023-04-05T02:32:40;0.80;99.90
47022;DHT22;32779;52.264;6.154;2023-04-05T02:35:10;0.80;99.90
47022;DHT22;32779;52.264;6.154;2023-04-05T02:37:36;0.70;99.90
47022;DHT22;32779;52.264;6.154;2023-04-05T02:40:04;0.80;99.90
47022;DHT22;32779;52.264;6.154;2023-04-05T02:42:31;0.70;99.90
47022;DHT22;32779;52.264;6.154;2023-04-05T02:44:56;0.70;99.90
47022;DHT22;32779;52.264;6.154;2023-04-05T02:47:22;0.60;99.90
47022;DHT22;32779;52.264;6.154;2023-04-05T02:49:48;0.60;99.90
47022;DHT22;32779;52.264;6.154;2023-04-05T02:52:14;0.50;99.90
47022;DHT22;32779;52.264;6.154;2023-04-05T02:54:40;0.50;99.90
47022;DHT22;32779;52.264;6.154;2023-04-05T02:57:05;0.50;99.90
47022;DHT22;32779;52.264;6.154;2023-04-05T02:59:35;0.40;99.90
47022;DHT22;32779;52.264;6.154;2023-04-05T03:02:01;0.40;99.90
47022;DHT22;32779;52.264;6.154;2023-04-05T03:04:27;0.30;99.90
47022;DHT22;32779;52.264;6.154;2023-04-05T03:06:52;0.30;99.90
47022;DHT22;32779;52.264;6.154;2023-04-05T03:09:20;0.30;99.90
47022;DHT22;32779;52.264;6.154;2023-04-05T03:11:45;0.30;99.90
47022;DHT22;32779;52.264;6.154;2023-04-05T03:14:11;0.20;99.90
47022;DHT22;32779;52.264;6.154;2023-04-05T03:16:37;0.20;99.90
47022;DHT22;32779;52.264;6.154;2023-04-05T03:19:05;0.20;99.90
47022;DHT22;32779;52.264;6.154;2023-04-05T03:21:31;0.20;99.90
47022;DHT22;32779;52.264;6.154;2023-04-05T03:23:58;0.10;99.90
47022;DHT22;32779;52.264;6.154;2023-04-05T03:26:24;0.10;99.90
47022;DHT22;32779;52.264;6.154;2023-04-05T03:28:50;0.10;99.90
47022;DHT22;32779;52.264;6.154;2023-04-05T03:31:16;0.10;99.90
47022;DHT22;32779;52.264;6.154;2023-04-05T03:33:42;0.10;99.90
47022;DHT22;32779;52.264;6.154;2023-04-05T03:36:07;0.00;99.90
47022;DHT22;32779;52.264;6.154;2023-04-05T03:38:33;0.10;99.90
47022;DHT22;32779;52.264;6.154;2023-04-05T03:41:00;0.10;99.90
47022;DHT22;32779;52.264;6.154;2023-04-05T03:43:26;0.10;99.90
47022;DHT22;32779;52.264;6.154;2023-04-05T03:45:52;0.10;99.90
47022;DHT22;32779;52.264;6.154;2023-04-05T03:48:17;0.10;99.90
47022;DHT22;32779;52.264;6.154;2023-04-05T03:50:45;0.10;99.90
47022;DHT22;32779;52.264;6.154;2023-04-05T03:53:11;0.10;99.90
47022;DHT22;32779;52.264;6.154;2023-04-05T03:55:37;0.10;99.90
47022;DHT22;32779;52.264;6.154;2023-04-05T03:58:02;0.10;99.90
47022;DHT22;32779;52.264;6.154;2023-04-05T04:00:28;0.00;99.90
47022;DHT22;32779;52.264;6.154;2023-04-05T04:02:54;-0.10;99.90
47022;DHT22;32779;52.264;6.154;2023-04-05T04:05:19;-0.10;99.90
47022;DHT22;32779;52.264;6.154;2023-04-05T04:07:48;-0.10;99.90
47022;DHT22;32779;52.264;6.154;2023-04-05T04:10:15;-0.10;99.90
47022;DHT22;32779;52.264;6.154;2023-04-05T04:12:43;-0.20;99.90
47022;DHT22;32779;52.264;6.154;2023-04-05T04:15:10;-0.20;99.90
47022;DHT22;32779;52.264;6.154;2023-04-05T04:17:36;-0.20;99.90
47022;DHT22;32779;52.264;6.154;2023-04-05T04:20:03;-0.20;99.90
47022;DHT22;32779;52.264;6.154;2023-04-05T04:22:35;-0.20;99.90
47022;DHT22;32779;52.264;6.154;2023-04-05T04:25:04;-0.30;99.90
47022;DHT22;32779;52.264;6.154;2023-04-05T04:27:30;-0.30;99.90
47022;DHT22;32779;52.264;6.154;2023-04-05T04:29:56;-0.30;99.90
47022;DHT22;32779;52.264;6.154;2023-04-05T04:32:28;-0.40;99.90
47022;DHT22;32779;52.264;6.154;2023-04-05T04:35:14;-0.40;99.90
47022;DHT22;32779;52.264;6.154;2023-04-05T04:37:46;-0.50;99.90
47022;DHT22;32779;52.264;6.154;2023-04-05T04:40:14;-0.60;99.90
47022;DHT22;32779;52.264;6.154;2023-04-05T04:42:42;-0.60;99.90
47022;DHT22;32779;52.264;6.154;2023-04-05T04:45:13;-0.70;99.90
47022;DHT22;32779;52.264;6.154;2023-04-05T04:47:48;-0.60;99.90
47022;DHT22;32779;52.264;6.154;2023-04-05T04:50:14;-0.60;99.90
47022;DHT22;32779;52.264;6.154;2023-04-05T04:52:41;-0.70;99.90
47022;DHT22;32779;52.264;6.154;2023-04-05T04:55:10;-0.60;99.90
47022;DHT22;32779;52.264;6.154;2023-04-05T04:57:39;-0.60;99.90
47022;DHT22;32779;52.264;6.154;2023-04-05T05:00:07;-0.60;99.90
47022;DHT22;32779;52.264;6.154;2023-04-05T05:02:39;-0.60;99.90
47022;DHT22;32779;52.264;6.154;2023-04-05T05:05:06;-0.60;99.90
47022;DHT22;32779;52.264;6.154;2023-04-05T05:07:32;-0.60;99.90
47022;DHT22;32779;52.264;6.154;2023-04-05T05:09:57;-0.50;99.90
47022;DHT22;32779;52.264;6.154;2023-04-05T05:12:23;-0.60;99.90
47022;DHT22;32779;52.264;6.154;2023-04-05T05:14:48;-0.60;99.90
47022;DHT22;32779;52.264;6.154;2023-04-05T05:17:14;-0.60;99.90
47022;DHT22;32779;52.264;6.154;2023-04-05T05:19:40;-0.70;99.90
47022;DHT22;32779;52.264;6.154;2023-04-05T05:22:05;-0.60;99.90
47022;DHT22;32779;52.264;6.154;2023-04-05T05:24:31;-0.60;99.90
47022;DHT22;32779;52.264;6.154;2023-04-05T05:26:56;-0.60;99.90
47022;DHT22;32779;52.264;6.154;2023-04-05T05:29:22;-0.60;99.90
47022;DHT22;32779;52.264;6.154;2023-04-05T05:31:48;-0.60;99.90
47022;DHT22;32779;52.264;6.154;2023-04-05T05:34:14;-0.70;99.90
47022;DHT22;32779;52.264;6.154;2023-04-05T05:36:40;-0.70;99.90
47022;DHT22;32779;52.264;6.154;2023-04-05T05:39:06;-0.70;99.90
47022;DHT22;32779;52.264;6.154;2023-04-05T05:41:32;-0.60;99.90
47022;DHT22;32779;52.264;6.154;2023-04-05T05:43:58;-0.60;99.90
47022;DHT22;32779;52.264;6.154;2023-04-05T05:46:24;-0.50;99.90
47022;DHT22;32779;52.264;6.154;2023-04-05T05:48:50;-0.50;99.90
47022;DHT22;32779;52.264;6.154;2023-04-05T05:51:16;-0.40;99.90
47022;DHT22;32779;52.264;6.154;2023-04-05T05:53:43;-0.30;99.90
47022;DHT22;32779;52.264;6.154;2023-04-05T05:56:09;-0.20;99.90
47022;DHT22;32779;52.264;6.154;2023-04-05T05:58:36;0.20;99.90
47022;DHT22;32779;52.264;6.154;2023-04-05T06:01:02;0.50;99.90
47022;DHT22;32779;52.264;6.154;2023-04-05T06:03:28;0.80;99.90
47022;DHT22;32779;52.264;6.154;2023-04-05T06:05:55;1.10;99.90
47022;DHT22;32779;52.264;6.154;2023-04-05T06:08:22;1.40;99.90
47022;DHT22;32779;52.264;6.154;2023-04-05T06:10:49;1.70;99.90
47022;DHT22;32779;52.264;6.154;2023-04-05T06:13:15;1.90;99.90
47022;DHT22;32779;52.264;6.154;2023-04-05T06:15:42;2.20;99.90
47022;DHT22;32779;52.264;6.154;2023-04-05T06:18:08;2.40;99.90
47022;DHT22;32779;52.264;6.154;2023-04-05T06:20:33;2.70;99.90
47022;DHT22;32779;52.264;6.154;2023-04-05T06:23:00;2.90;99.90
47022;DHT22;32779;52.264;6.154;2023-04-05T06:25:25;3.10;99.90
47022;DHT22;32779;52.264;6.154;2023-04-05T06:27:51;3.30;99.90
47022;DHT22;32779;52.264;6.154;2023-04-05T06:30:16;3.50;99.90
47022;DHT22;32779;52.264;6.154;2023-04-05T06:32:42;3.70;99.90
47022;DHT22;32779;52.264;6.154;2023-04-05T06:35:08;3.80;99.90
47022;DHT22;32779;52.264;6.154;2023-04-05T06:37:33;3.90;99.90
47022;DHT22;32779;52.264;6.154;2023-04-05T06:39:59;4.10;99.90
47022;DHT22;32779;52.264;6.154;2023-04-05T06:42:24;4.30;99.90
47022;DHT22;32779;52.264;6.154;2023-04-05T06:44:50;4.40;99.90
47022;DHT22;32779;52.264;6.154;2023-04-05T06:47:16;4.50;99.90
47022;DHT22;32779;52.264;6.154;2023-04-05T06:49:41;4.60;99.90
47022;DHT22;32779;52.264;6.154;2023-04-05T06:52:07;4.80;99.90
47022;DHT22;32779;52.264;6.154;2023-04-05T06:54:33;4.80;99.90
47022;DHT22;32779;52.264;6.154;2023-04-05T06:57:02;5.00;99.90
47022;DHT22;32779;52.264;6.154;2023-04-05T06:59:28;5.10;99.90
47022;DHT22;32779;52.264;6.154;2023-04-05T07:01:54;5.20;99.90
47022;DHT22;32779;52.264;6.154;2023-04-05T07:04:20;5.30;99.90
47022;DHT22;32779;52.264;6.154;2023-04-05T07:06:46;5.40;99.90
47022;DHT22;32779;52.264;6.154;2023-04-05T07:09:11;5.50;99.90
47022;DHT22;32779;52.264;6.154;2023-04-05T07:11:37;5.60;99.90
47022;DHT22;32779;52.264;6.154;2023-04-05T07:14:04;5.60;99.90
47022;DHT22;32779;52.264;6.154;2023-04-05T07:16:30;5.80;99.90
47022;DHT22;32779;52.264;6.154;2023-04-05T07:18:56;5.90;99.90
47022;DHT22;32779;52.264;6.154;2023-04-05T07:21:22;6.00;99.90
47022;DHT22;32779;52.264;6.154;2023-04-05T07:23:47;6.20;99.90
47022;DHT22;32779;52.264;6.154;2023-04-05T07:26:13;6.40;99.90
47022;DHT22;32779;52.264;6.154;2023-04-05T07:28:39;6.60;99.90
47022;DHT22;32779;52.264;6.154;2023-04-05T07:31:06;6.70;99.90
47022;DHT22;32779;52.264;6.154;2023-04-05T07:33:32;6.90;99.20
47022;DHT22;32779;52.264;6.154;2023-04-05T07:35:58;6.90;99.30
47022;DHT22;32779;52.264;6.154;2023-04-05T07:38:25;7.00;99.00
47022;DHT22;32779;52.264;6.154;2023-04-05T07:40:51;7.10;98.90
47022;DHT22;32779;52.264;6.154;2023-04-05T07:43:18;7.00;98.60
47022;DHT22;32779;52.264;6.154;2023-04-05T07:45:43;7.00;98.40
47022;DHT22;32779;52.264;6.154;2023-04-05T07:48:09;7.10;98.00
47022;DHT22;32779;52.264;6.154;2023-04-05T07:50:35;7.20;98.30
47022;DHT22;32779;52.264;6.154;2023-04-05T07:53:04;7.30;97.80
47022;DHT22;32779;52.264;6.154;2023-04-05T07:55:29;7.40;97.90
47022;DHT22;32779;52.264;6.154;2023-04-05T07:57:55;7.50;97.20
47022;DHT22;32779;52.264;6.154;2023-04-05T08:00:22;7.60;97.20
47022;DHT22;32779;52.264;6.154;2023-04-05T08:02:48;7.70;97.40
47022;DHT22;32779;52.264;6.154;2023-04-05T08:05:14;7.80;96.50
47022;DHT22;32779;52.264;6.154;2023-04-05T08:07:40;7.90;96.40
47022;DHT22;32779;52.264;6.154;2023-04-05T08:10:06;7.90;95.80
47022;DHT22;32779;52.264;6.154;2023-04-05T08:12:33;8.00;95.80
47022;DHT22;32779;52.264;6.154;2023-04-05T08:14:59;8.10;96.30
47022;DHT22;32779;52.264;6.154;2023-04-05T08:17:24;8.10;96.40
47022;DHT22;32779;52.264;6.154;2023-04-05T08:19:52;8.20;95.80
47022;DHT22;32779;52.264;6.154;2023-04-05T08:22:19;8.30;95.50
47022;DHT22;32779;52.264;6.154;2023-04-05T08:24:45;8.40;94.90
47022;DHT22;32779;52.264;6.154;2023-04-05T08:27:10;8.50;95.30
47022;DHT22;32779;52.264;6.154;2023-04-05T08:29:36;8.60;95.10
47022;DHT22;32779;52.264;6.154;2023-04-05T08:32:03;8.70;94.60
47022;DHT22;32779;52.264;6.154;2023-04-05T08:34:28;8.80;93.90
47022;DHT22;32779;52.264;6.154;2023-04-05T08:36:57;8.80;93.60
47022;DHT22;32779;52.264;6.154;2023-04-05T08:39:24;8.90;93.60
47022;DHT22;32779;52.264;6.154;2023-04-05T08:42:03;9.00;92.60
47022;DHT22;32779;52.264;6.154;2023-04-05T08:44:30;9.00;93.00
47022;DHT22;32779;52.264;6.154;2023-04-05T08:46:58;9.00;93.00
47022;DHT22;32779;52.264;6.154;2023-04-05T08:49:24;9.00;91.90
47022;DHT22;32779;52.264;6.154;2023-04-05T08:51:50;9.00;91.30
47022;DHT22;32779;52.264;6.154;2023-04-05T08:54:16;9.00;91.60
47022;DHT22;32779;52.264;6.154;2023-04-05T08:56:41;9.10;92.30
47022;DHT22;32779;52.264;6.154;2023-04-05T08:59:11;9.10;91.90
47022;DHT22;32779;52.264;6.154;2023-04-05T09:01:42;9.20;91.30
47022;DHT22;32779;52.264;6.154;2023-04-05T09:04:21;9.20;91.20
47022;DHT22;32779;52.264;6.154;2023-04-05T09:06:51;9.20;91.30
47022;DHT22;32779;52.264;6.154;2023-04-05T09:09:20;9.20;90.50
47022;DHT22;32779;52.264;6.154;2023-04-05T09:11:47;9.20;89.20
47022;DHT22;32779;52.264;6.154;2023-04-05T09:14:13;9.10;89.80
47022;DHT22;32779;52.264;6.154;2023-04-05T09:16:40;9.10;89.80
47022;DHT22;32779;52.264;6.154;2023-04-05T09:19:06;9.10;90.00
47022;DHT22;32779;52.264;6.154;2023-04-05T09:21:57;9.10;90.60
47022;DHT22;32779;52.264;6.154;2023-04-05T09:24:36;9.10;88.20
47022;DHT22;32779;52.264;6.154;2023-04-05T09:29:35;9.00;90.60
47022;DHT22;32779;52.264;6.154;2023-04-05T09:32:01;9.00;90.00
47022;DHT22;32779;52.264;6.154;2023-04-05T09:34:30;8.90;90.10
47022;DHT22;32779;52.264;6.154;2023-04-05T09:36:58;9.00;90.30
47022;DHT22;32779;52.264;6.154;2023-04-05T09:39:27;9.00;90.10
47022;DHT22;32779;52.264;6.154;2023-04-05T09:44:54;9.10;90.40
47022;DHT22;32779;52.264;6.154;2023-04-05T09:47:25;9.00;90.20
47022;DHT22;32779;52.264;6.154;2023-04-05T09:49:58;9.00;90.00
47022;DHT22;32779;52.264;6.154;2023-04-05T09:52:28;9.10;90.00
47022;DHT22;32779;52.264;6.154;2023-04-05T09:54:58;9.00;90.80
47022;DHT22;32779;52.264;6.154;2023-04-05T09:57:25;9.00;88.90
47022;DHT22;32779;52.264;6.154;2023-04-05T09:59:55;9.00;88.50
47022;DHT22;32779;52.264;6.154;2023-04-05T10:02:21;9.00;89.80
47022;DHT22;32779;52.264;6.154;2023-04-05T10:04:47;8.90;87.70
47022;DHT22;32779;52.264;6.154;2023-04-05T10:07:15;8.90;89.60
47022;DHT22;32779;52.264;6.154;2023-04-05T10:09:42;8.90;90.00
47022;DHT22;32779;52.264;6.154;2023-04-05T10:12:09;8.90;90.70
47022;DHT22;32779;52.264;6.154;2023-04-05T10:14:36;8.80;90.00
47022;DHT22;32779;52.264;6.154;2023-04-05T10:17:10;8.90;90.40
47022;DHT22;32779;52.264;6.154;2023-04-05T10:19:44;8.80;89.00
47022;DHT22;32779;52.264;6.154;2023-04-05T10:22:16;8.80;89.60
47022;DHT22;32779;52.264;6.154;2023-04-05T10:24:50;8.80;90.00
47022;DHT22;32779;52.264;6.154;2023-04-05T10:27:38;8.90;91.00
47022;DHT22;32779;52.264;6.154;2023-04-05T10:30:05;9.10;91.30
47022;DHT22;32779;52.264;6.154;2023-04-05T10:38:24;9.30;88.70
47022;DHT22;32779;52.264;6.154;2023-04-05T10:40:58;9.40;89.50
47022;DHT22;32779;52.264;6.154;2023-04-05T10:43:26;9.50;88.70
47022;DHT22;32779;52.264;6.154;2023-04-05T10:45:53;9.50;89.60
47022;DHT22;32779;52.264;6.154;2023-04-05T10:48:54;9.50;88.10
47022;DHT22;32779;52.264;6.154;2023-04-05T10:51:23;9.50;90.20
47022;DHT22;32779;52.264;6.154;2023-04-05T10:53:50;9.50;88.40
47022;DHT22;32779;52.264;6.154;2023-04-05T10:56:17;9.50;88.50
47022;DHT22;32779;52.264;6.154;2023-04-05T10:58:44;9.50;89.60
47022;DHT22;32779;52.264;6.154;2023-04-05T11:01:11;9.50;89.90
47022;DHT22;32779;52.264;6.154;2023-04-05T11:08:56;9.50;89.00
47022;DHT22;32779;52.264;6.154;2023-04-05T11:11:23;9.40;88.50
47022;DHT22;32779;52.264;6.154;2023-04-05T11:13:50;9.40;88.60
47022;DHT22;32779;52.264;6.154;2023-04-05T11:16:16;9.50;89.20
47022;DHT22;32779;52.264;6.154;2023-04-05T11:18:49;9.50;88.60
47022;DHT22;32779;52.264;6.154;2023-04-05T11:21:25;9.40;87.70
47022;DHT22;32779;52.264;6.154;2023-04-05T11:24:06;9.40;87.70
47022;DHT22;32779;52.264;6.154;2023-04-05T11:26:34;9.50;89.80
47022;DHT22;32779;52.264;6.154;2023-04-05T11:29:17;9.50;87.00
47022;DHT22;32779;52.264;6.154;2023-04-05T11:31:59;9.50;88.50
47022;DHT22;32779;52.264;6.154;2023-04-05T11:34:35;9.60;87.30
47022;DHT22;32779;52.264;6.154;2023-04-05T11:37:00;9.60;87.10
47022;DHT22;32779;52.264;6.154;2023-04-05T11:39:27;9.60;88.00
47022;DHT22;32779;52.264;6.154;2023-04-05T11:42:05;9.60;87.60
47022;DHT22;32779;52.264;6.154;2023-04-05T11:44:43;9.70;86.70
47022;DHT22;32779;52.264;6.154;2023-04-05T11:47:09;9.70;86.40
47022;DHT22;32779;52.264;6.154;2023-04-05T11:49:39;9.70;86.10
47022;DHT22;32779;52.264;6.154;2023-04-05T11:52:13;9.70;88.40
47022;DHT22;32779;52.264;6.154;2023-04-05T11:54:39;9.70;87.60
47022;DHT22;32779;52.264;6.154;2023-04-05T11:57:12;9.70;86.60
47022;DHT22;32779;52.264;6.154;2023-04-05T11:59:39;9.70;84.20
47022;DHT22;32779;52.264;6.154;2023-04-05T12:02:05;9.70;84.10
47022;DHT22;32779;52.264;6.154;2023-04-05T12:04:33;9.70;84.70
47022;DHT22;32779;52.264;6.154;2023-04-05T12:07:15;9.60;83.90
47022;DHT22;32779;52.264;6.154;2023-04-05T12:12:37;9.60;83.60
47022;DHT22;32779;52.264;6.154;2023-04-05T12:15:05;9.60;84.00
47022;DHT22;32779;52.264;6.154;2023-04-05T12:17:46;9.50;83.50
47022;DHT22;32779;52.264;6.154;2023-04-05T12:20:18;9.50;83.90
47022;DHT22;32779;52.264;6.154;2023-04-05T12:22:46;9.60;84.80
47022;DHT22;32779;52.264;6.154;2023-04-05T12:25:16;9.70;85.10
47022;DHT22;32779;52.264;6.154;2023-04-05T12:27:42;9.80;86.40
47022;DHT22;32779;52.264;6.154;2023-04-05T12:32:52;9.90;86.00
47022;DHT22;32779;52.264;6.154;2023-04-05T12:35:20;10.00;85.70
47022;DHT22;32779;52.264;6.154;2023-04-05T12:37:46;10.10;86.50
47022;DHT22;32779;52.264;6.154;2023-04-05T12:40:19;10.20;85.80
47022;DHT22;32779;52.264;6.154;2023-04-05T12:42:46;10.20;86.00
47022;DHT22;32779;52.264;6.154;2023-04-05T12:45:12;10.30;87.80
47022;DHT22;32779;52.264;6.154;2023-04-05T12:48:14;10.30;86.70
47022;DHT22;32779;52.264;6.154;2023-04-05T12:50:45;10.40;88.60
47022;DHT22;32779;52.264;6.154;2023-04-05T12:53:18;10.50;87.60
47022;DHT22;32779;52.264;6.154;2023-04-05T12:55:52;10.50;85.30
47022;DHT22;32779;52.264;6.154;2023-04-05T12:58:22;10.50;86.40
47022;DHT22;32779;52.264;6.154;2023-04-05T13:00:48;10.50;87.10
47022;DHT22;32779;52.264;6.154;2023-04-05T13:03:20;10.60;85.00
47022;DHT22;32779;52.264;6.154;2023-04-05T13:05:49;10.60;85.10
47022;DHT22;32779;52.264;6.154;2023-04-05T13:08:15;10.60;87.00
47022;DHT22;32779;52.264;6.154;2023-04-05T13:10:43;10.60;82.90
47022;DHT22;32779;52.264;6.154;2023-04-05T13:13:10;10.50;83.40
47022;DHT22;32779;52.264;6.154;2023-04-05T13:15:35;10.50;83.40
47022;DHT22;32779;52.264;6.154;2023-04-05T13:18:01;10.40;83.20
47022;DHT22;32779;52.264;6.154;2023-04-05T13:20:26;10.40;84.70
47022;DHT22;32779;52.264;6.154;2023-04-05T13:22:52;10.30;84.70
47022;DHT22;32779;52.264;6.154;2023-04-05T13:25:18;10.20;83.60
47022;DHT22;32779;52.264;6.154;2023-04-05T13:27:43;10.20;85.10
47022;DHT22;32779;52.264;6.154;2023-04-05T13:30:09;10.30;85.00
47022;DHT22;32779;52.264;6.154;2023-04-05T13:32:35;10.30;84.20
47022;DHT22;32779;52.264;6.154;2023-04-05T13:35:01;10.30;87.00
47022;DHT22;32779;52.264;6.154;2023-04-05T13:37:26;10.30;84.10
47022;DHT22;32779;52.264;6.154;2023-04-05T13:39:52;10.30;82.60
47022;DHT22;32779;52.264;6.154;2023-04-05T13:42:17;10.20;84.40
47022;DHT22;32779;52.264;6.154;2023-04-05T13:44:43;10.30;84.30
47022;DHT22;32779;52.264;6.154;2023-04-05T13:47:09;10.30;85.60
47022;DHT22;32779;52.264;6.154;2023-04-05T13:49:34;10.30;84.30
47022;DHT22;32779;52.264;6.154;2023-04-05T13:52:00;10.40;83.80
47022;DHT22;32779;52.264;6.154;2023-04-05T13:54:26;10.40;84.40
47022;DHT22;32779;52.264;6.154;2023-04-05T13:56:51;10.40;84.80
47022;DHT22;32779;52.264;6.154;2023-04-05T13:59:17;10.40;85.00
47022;DHT22;32779;52.264;6.154;2023-04-05T14:01:43;10.40;82.70
47022;DHT22;32779;52.264;6.154;2023-04-05T14:04:09;10.40;83.90
47022;DHT22;32779;52.264;6.154;2023-04-05T14:06:35;10.40;83.70
47022;DHT22;32779;52.264;6.154;2023-04-05T14:09:01;10.40;83.00
47022;DHT22;32779;52.264;6.154;2023-04-05T14:11:27;10.40;83.60
47022;DHT22;32779;52.264;6.154;2023-04-05T14:13:52;10.30;84.60
47022;DHT22;32779;52.264;6.154;2023-04-05T14:16:18;10.40;83.40
47022;DHT22;32779;52.264;6.154;2023-04-05T14:18:43;10.30;83.00
47022;DHT22;32779;52.264;6.154;2023-04-05T14:21:09;10.30;85.40
47022;DHT22;32779;52.264;6.154;2023-04-05T14:23:35;10.30;83.80
47022;DHT22;32779;52.264;6.154;2023-04-05T14:26:00;10.20;83.40
47022;DHT22;32779;52.264;6.154;2023-04-05T14:28:26;10.20;82.80
47022;DHT22;32779;52.264;6.154;2023-04-05T14:30:52;10.10;82.30
47022;DHT22;32779;52.264;6.154;2023-04-05T14:33:17;10.10;83.70
47022;DHT22;32779;52.264;6.154;2023-04-05T14:35:43;10.20;84.60
47022;DHT22;32779;52.264;6.154;2023-04-05T14:38:08;10.20;83.80
47022;DHT22;32779;52.264;6.154;2023-04-05T14:40:34;10.20;84.50
47022;DHT22;32779;52.264;6.154;2023-04-05T14:43:00;10.20;83.70
47022;DHT22;32779;52.264;6.154;2023-04-05T14:45:26;10.20;83.20
47022;DHT22;32779;52.264;6.154;2023-04-05T14:47:52;10.20;83.00
47022;DHT22;32779;52.264;6.154;2023-04-05T14:50:18;10.20;83.00
47022;DHT22;32779;52.264;6.154;2023-04-05T14:52:44;10.20;82.50
47022;DHT22;32779;52.264;6.154;2023-04-05T14:55:10;10.30;83.40
47022;DHT22;32779;52.264;6.154;2023-04-05T14:57:38;10.30;84.30
47022;DHT22;32779;52.264;6.154;2023-04-05T15:00:05;10.30;83.10
47022;DHT22;32779;52.264;6.154;2023-04-05T15:02:31;10.30;84.50
47022;DHT22;32779;52.264;6.154;2023-04-05T15:04:57;10.30;82.90
47022;DHT22;32779;52.264;6.154;2023-04-05T15:07:26;10.40;83.50
47022;DHT22;32779;52.264;6.154;2023-04-05T15:09:52;10.40;83.40
47022;DHT22;32779;52.264;6.154;2023-04-05T15:12:17;10.40;81.30
47022;DHT22;32779;52.264;6.154;2023-04-05T15:14:43;10.40;81.90
47022;DHT22;32779;52.264;6.154;2023-04-05T15:17:10;10.40;83.40
47022;DHT22;32779;52.264;6.154;2023-04-05T15:19:36;10.40;83.30
47022;DHT22;32779;52.264;6.154;2023-04-05T15:22:02;10.50;84.10
47022;DHT22;32779;52.264;6.154;2023-04-05T15:24:28;10.60;83.10
47022;DHT22;32779;52.264;6.154;2023-04-05T15:26:53;10.50;82.00
47022;DHT22;32779;52.264;6.154;2023-04-05T15:29:26;10.50;82.30
47022;DHT22;32779;52.264;6.154;2023-04-05T15:31:52;10.50;82.00
47022;DHT22;32779;52.264;6.154;2023-04-05T15:34:17;10.50;82.40
47022;DHT22;32779;52.264;6.154;2023-04-05T15:36:43;10.50;81.70
47022;DHT22;32779;52.264;6.154;2023-04-05T15:39:08;10.50;82.80
47022;DHT22;32779;52.264;6.154;2023-04-05T15:41:34;10.50;82.50
47022;DHT22;32779;52.264;6.154;2023-04-05T15:43:59;10.50;82.60
47022;DHT22;32779;52.264;6.154;2023-04-05T15:46:25;10.50;82.40
47022;DHT22;32779;52.264;6.154;2023-04-05T15:48:51;10.50;81.70
47022;DHT22;32779;52.264;6.154;2023-04-05T15:51:16;10.40;81.80
47022;DHT22;32779;52.264;6.154;2023-04-05T15:53:42;10.40;81.60
47022;DHT22;32779;52.264;6.154;2023-04-05T15:56:07;10.40;81.90
47022;DHT22;32779;52.264;6.154;2023-04-05T15:58:33;10.40;82.40
47022;DHT22;32779;52.264;6.154;2023-04-05T16:01:01;10.40;82.50
47022;DHT22;32779;52.264;6.154;2023-04-05T16:03:26;10.40;82.40
47022;DHT22;32779;52.264;6.154;2023-04-05T16:05:52;10.40;82.70
47022;DHT22;32779;52.264;6.154;2023-04-05T16:08:17;10.40;82.80
47022;DHT22;32779;52.264;6.154;2023-04-05T16:10:43;10.40;83.70
47022;DHT22;32779;52.264;6.154;2023-04-05T16:13:09;10.40;82.30
47022;DHT22;32779;52.264;6.154;2023-04-05T16:15:35;10.40;83.20